Time;durP1;ratioP1;P1;durP2;ratioP2;P2;SDS_P1;SDS_P2;PMS_P1;PMS_P2;Temp;Humidity;BMP_temperature;BMP_pressure;BME280_temperature;BME280_humidity;BME280_pressure;Samples;Min_cycle;Max_cycle;Signal;HPM_P1;HPM_P2
2024/01/21 00:01:05;;;;;;;;;;;;;;;16.62;39.86;102104.78;5119514;28;1144;-40
2024/01/21 00:03:30;;;;;;;;;;;;;;;15.98;41.41;102099.94;5101474;28;852;-41
2024/01/21 00:05:56;;;;;;;;;;;;;;;15.60;41.98;102100.00;5114112;28;1057;-42
2024/01/21 00:08:21;;;;;;;;;;;;;;;15.41;42.68;102096.38;5099601;28;1122;-38
2024/01/21 00:10:47;;;;;;;;;;;;;;;16.75;39.86;102106.78;5112189;28;1017;-41
2024/01/21 00:13:12;;;;;;;;;;;;;;;17.35;38.29;102100.09;5119495;28;1073;-39
2024/01/21 00:15:38;;;;;;;;;;;;;;;16.30;40.47;102109.91;5113832;28;1968;-41
2024/01/21 00:18:04;;;;;;;;;;;;;;;15.77;41.56;102110.66;5119383;28;1034;-38
2024/01/21 00:20:30;;;;;;;;;;;;;;;15.49;42.23;102119.03;5119434;28;1092;-41
2024/01/21 00:22:57;;;;;;;;;;;;;;;15.99;41.56;102107.00;5091906;28;1141;-40
2024/01/21 00:25:22;;;;;;;;;;;;;;;17.25;38.90;102114.84;5092929;28;1105;-40
2024/01/21 00:27:48;;;;;;;;;;;;;;;16.52;40.03;102123.00;5092534;28;1721;-40
2024/01/21 00:30:13;;;;;;;;;;;;;;;15.85;41.29;102123.53;5105902;28;1098;-41
2024/01/21 00:32:39;;;;;;;;;;;;;;;15.58;41.81;102123.06;5105285;28;1242;-37
2024/01/21 00:35:05;;;;;;;;;;;;;;;15.95;41.30;102113.34;5119020;28;978;-39
2024/01/21 00:37:30;;;;;;;;;;;;;;;17.27;38.66;102109.47;5119171;28;1909;-39
2024/01/21 00:39:55;;;;;;;;;;;;;;;16.64;39.76;102110.00;5099864;28;948;-40
2024/01/21 00:42:21;;;;;;;;;;;;;;;15.98;41.18;102102.59;5098520;28;1090;-39
2024/01/21 00:44:47;;;;;;;;;;;;;;;15.55;42.25;102106.34;5098380;28;1043;-40
2024/01/21 00:47:12;;;;;;;;;;;;;;;15.28;42.32;102113.81;5104916;28;1095;-36
2024/01/21 00:49:40;;;;;;;;;;;;;;;16.65;39.96;102112.59;5118531;28;1062;-39
2024/01/21 00:52:06;;;;;;;;;;;;;;;16.93;38.91;102112.97;5111267;28;1208;-38
2024/01/21 00:54:32;;;;;;;;;;;;;;;16.08;40.76;102121.59;5097926;28;1039;-37
2024/01/21 00:56:58;;;;;;;;;;;;;;;15.71;41.65;102112.72;5101613;28;2020;-37
2024/01/21 00:59:23;;;;;;;;;;;;;;;15.38;42.50;102111.59;5097985;28;1037;-39
2024/01/21 01:01:49;;;;;;;;;;;;;;;16.39;40.59;102112.13;5118117;28;1124;-36
2024/01/21 01:04:14;;;;;;;;;;;;;;;17.26;38.44;102108.59;5111131;28;881;-40
2024/01/21 01:06:40;;;;;;;;;;;;;;;16.27;40.14;102102.97;5117903;28;1084;-36
2024/01/21 01:09:05;;;;;;;;;;;;;;;15.74;41.24;102107.28;5119068;28;1033;-44
2024/01/21 01:11:31;;;;;;;;;;;;;;;15.44;42.36;102108.66;5118659;28;1062;-41
2024/01/21 01:13:57;;;;;;;;;;;;;;;15.48;42.39;102104.91;5118087;28;1057;-40
2024/01/21 01:16:22;;;;;;;;;;;;;;;16.94;39.16;102100.50;5093261;28;1974;-38
2024/01/21 01:18:51;;;;;;;;;;;;;;;17.07;38.43;102095.41;5110665;28;1026;-39
2024/01/21 01:21:16;;;;;;;;;;;;;;;16.14;40.55;102116.00;5111953;28;1033;-39
2024/01/21 01:23:42;;;;;;;;;;;;;;;15.67;41.67;102106.72;5097981;28;1074;-42
2024/01/21 01:26:07;;;;;;;;;;;;;;;15.35;42.21;102104.63;5109187;28;2392;-39
2024/01/21 01:28:33;;;;;;;;;;;;;;;16.58;40.13;102107.69;5097947;28;1101;-40
2024/01/21 01:30:58;;;;;;;;;;;;;;;17.53;37.98;102099.19;5103439;28;1194;-38
2024/01/21 01:33:24;;;;;;;;;;;;;;;16.48;39.85;102100.16;5092481;28;1219;-42
2024/01/21 01:35:50;;;;;;;;;;;;;;;15.82;41.19;102097.16;5102666;28;1980;-40
2024/01/21 01:38:15;;;;;;;;;;;;;;;15.57;41.84;102097.47;5105440;28;1121;-39
2024/01/21 01:40:41;;;;;;;;;;;;;;;15.43;42.01;102105.13;5093701;28;1050;-41
2024/01/21 01:43:06;;;;;;;;;;;;;;;16.92;39.15;102113.00;5110162;28;1147;-40
2024/01/21 01:45:32;;;;;;;;;;;;;;;16.85;38.99;102109.84;5112004;28;1049;-40
2024/01/21 01:47:57;;;;;;;;;;;;;;;15.98;40.55;102112.34;5110188;28;1078;-40
2024/01/21 01:50:23;;;;;;;;;;;;;;;15.52;42.00;102110.94;5113602;28;1010;-37
2024/01/21 01:52:49;;;;;;;;;;;;;;;15.48;42.08;102115.53;5105008;28;1129;-41
2024/01/21 01:55:15;;;;;;;;;;;;;;;16.99;38.83;102102.00;5115219;28;1263;-40
2024/01/21 01:57:40;;;;;;;;;;;;;;;17.01;38.54;102107.22;5106975;28;2570;-41
2024/01/21 02:00:09;;;;;;;;;;;;;;;16.13;40.18;102118.75;5080570;28;1142;-40
2024/01/21 02:02:37;;;;;;;;;;;;;;;15.62;41.29;102114.88;5106213;28;1011;-41
2024/01/21 02:05:03;;;;;;;;;;;;;;;15.33;42.01;102108.28;5084641;28;1083;-37
2024/01/21 02:07:29;;;;;;;;;;;;;;;16.36;40.26;102117.59;5086791;28;1182;-38
2024/01/21 02:09:54;;;;;;;;;;;;;;;17.33;38.07;102109.13;5116938;28;1225;-40
2024/01/21 02:12:20;;;;;;;;;;;;;;;16.27;39.92;102108.28;5117389;28;1034;-38
2024/01/21 02:14:45;;;;;;;;;;;;;;;15.79;41.17;102108.78;5099900;28;1098;-38
2024/01/21 02:17:10;;;;;;;;;;;;;;;15.41;41.97;102117.59;5117256;28;1981;-43
2024/01/21 02:19:36;;;;;;;;;;;;;;;16.70;39.14;102115.00;5103295;28;1097;-41
2024/01/21 02:22:02;;;;;;;;;;;;;;;17.23;37.95;102116.75;5116940;28;995;-41
2024/01/21 02:24:30;;;;;;;;;;;;;;;16.19;40.04;102118.44;5110856;28;1003;-39
2024/01/21 02:26:56;;;;;;;;;;;;;;;15.73;40.90;102119.69;5094655;28;2225;-40
2024/01/21 02:29:22;;;;;;;;;;;;;;;15.45;41.58;102130.75;5096951;28;1137;-42
2024/01/21 02:31:47;;;;;;;;;;;;;;;15.74;41.17;102126.72;5109494;28;1069;-39
2024/01/21 02:34:13;;;;;;;;;;;;;;;17.06;38.57;102126.47;5110472;28;1145;-39
2024/01/21 02:36:38;;;;;;;;;;;;;;;17.02;38.44;102136.38;5109636;28;1960;-42
2024/01/21 02:39:04;;;;;;;;;;;;;;;16.16;40.26;102132.69;5114229;28;1022;-40
2024/01/21 02:41:29;;;;;;;;;;;;;;;15.71;41.30;102133.97;5116437;28;1061;-41
2024/01/21 02:43:55;;;;;;;;;;;;;;;15.49;41.84;102132.31;5110491;28;1001;-39
2024/01/21 02:46:20;;;;;;;;;;;;;;;16.90;38.74;102137.03;5109230;28;1113;-40
2024/01/21 02:48:46;;;;;;;;;;;;;;;16.98;38.54;102147.28;5115893;28;1104;-38
2024/01/21 02:51:12;;;;;;;;;;;;;;;16.08;40.03;102144.66;5107037;28;1130;-38
2024/01/21 02:53:38;;;;;;;;;;;;;;;15.66;41.09;102150.94;5103325;28;1208;-42
2024/01/21 02:56:03;;;;;;;;;;;;;;;15.45;41.58;102154.59;5099931;28;1897;-45
2024/01/21 02:58:29;;;;;;;;;;;;;;;15.94;40.79;102147.91;5108910;28;1039;-44
2024/01/21 03:00:54;;;;;;;;;;;;;;;17.16;38.29;102152.59;5109216;28;1114;-41
2024/01/21 03:03:20;;;;;;;;;;;;;;;16.87;38.67;102154.00;5115931;28;1070;-41
2024/01/21 03:05:45;;;;;;;;;;;;;;;15.99;40.17;102152.13;5116567;28;1049;-41
2024/01/21 03:08:11;;;;;;;;;;;;;;;15.63;41.35;102152.91;5102329;28;1244;-42
2024/01/21 03:10:37;;;;;;;;;;;;;;;15.36;41.88;102155.88;5098432;28;1018;-40
2024/01/21 03:13:02;;;;;;;;;;;;;;;16.22;40.32;102159.88;5102712;28;1045;-44
2024/01/21 03:15:28;;;;;;;;;;;;;;;17.31;37.82;102151.78;5111216;28;1046;-39
2024/01/21 03:17:53;;;;;;;;;;;;;;;16.58;39.12;102166.13;5100865;28;1887;-41
2024/01/21 03:20:19;;;;;;;;;;;;;;;15.85;40.47;102163.34;5116157;28;1029;-41
2024/01/21 03:22:44;;;;;;;;;;;;;;;15.54;41.36;102160.34;5114941;28;1065;-40
2024/01/21 03:25:10;;;;;;;;;;;;;;;15.77;41.13;102169.03;5116254;28;1038;-40
2024/01/21 03:27:35;;;;;;;;;;;;;;;17.11;38.24;102167.00;5092715;28;2435;-38
2024/01/21 03:30:01;;;;;;;;;;;;;;;16.75;38.61;102171.44;5116455;28;1050;-40
2024/01/21 03:32:26;;;;;;;;;;;;;;;15.95;40.44;102174.38;5116302;28;1033;-43
2024/01/21 03:34:52;;;;;;;;;;;;;;;15.65;41.09;102170.44;5115963;28;1023;-39
2024/01/21 03:37:18;;;;;;;;;;;;;;;15.34;41.44;102169.19;5102598;28;1933;-38
2024/01/21 03:39:43;;;;;;;;;;;;;;;16.56;39.46;102178.63;5109707;28;1133;-39
2024/01/21 03:42:09;;;;;;;;;;;;;;;17.02;38.03;102178.94;5102196;28;1114;-40
2024/01/21 03:44:34;;;;;;;;;;;;;;;16.12;39.99;102186.03;5115745;28;990;-41
2024/01/21 03:47:00;;;;;;;;;;;;;;;15.65;40.65;102186.38;5101937;28;1076;-39
2024/01/21 03:49:27;;;;;;;;;;;;;;;15.72;41.25;102194.91;5116183;28;1125;-37
2024/01/21 03:51:52;;;;;;;;;;;;;;;17.16;38.17;102201.31;5103326;28;1089;-40
2024/01/21 03:54:18;;;;;;;;;;;;;;;16.98;38.04;102205.75;5115952;28;1015;-43
2024/01/21 03:56:44;;;;;;;;;;;;;;;16.13;39.94;102198.38;5106434;28;1917;-42
2024/01/21 03:59:09;;;;;;;;;;;;;;;15.67;40.71;102197.78;5115997;28;1045;-39
2024/01/21 04:01:41;;;;;;;;;;;;;;;15.37;41.69;102205.31;5111709;28;1148;-37
2024/01/21 04:04:07;;;;;;;;;;;;;;;16.88;38.79;102213.34;5104165;28;1298;-39
2024/01/21 04:06:37;;;;;;;;;;;;;;;17.03;37.97;102209.03;5104743;28;1078;-38
2024/01/21 04:09:02;;;;;;;;;;;;;;;16.17;39.61;102207.91;5119501;28;1049;-36
2024/01/21 04:11:28;;;;;;;;;;;;;;;15.64;40.88;102208.53;5105779;28;1232;-37
2024/01/21 04:13:53;;;;;;;;;;;;;;;15.47;41.15;102217.25;5107826;28;1201;-38
2024/01/21 04:16:19;;;;;;;;;;;;;;;16.10;40.13;102211.81;5101231;28;1988;-43
2024/01/21 04:18:45;;;;;;;;;;;;;;;17.29;37.62;102217.47;5091178;28;1277;-42
2024/01/21 04:21:11;;;;;;;;;;;;;;;16.83;38.46;102220.69;5099003;28;1078;-43
2024/01/21 04:23:36;;;;;;;;;;;;;;;16.00;39.91;102217.53;5099418;28;998;-42
2024/01/21 04:26:02;;;;;;;;;;;;;;;15.60;40.64;102220.19;5097435;28;1851;-40
2024/01/21 04:28:27;;;;;;;;;;;;;;;15.40;41.30;102221.09;5092973;28;1134;-43
2024/01/21 04:30:53;;;;;;;;;;;;;;;16.85;38.60;102224.97;5098123;28;1246;-39
2024/01/21 04:33:18;;;;;;;;;;;;;;;16.77;38.35;102233.34;5119128;28;1164;-36
2024/01/21 04:35:44;;;;;;;;;;;;;;;15.98;40.21;102234.44;5099729;28;1910;-39
2024/01/21 04:38:09;;;;;;;;;;;;;;;15.60;40.92;102235.28;5098382;28;1077;-39
2024/01/21 04:40:36;;;;;;;;;;;;;;;15.33;41.81;102238.22;5113215;28;1145;-46
2024/01/21 04:43:02;;;;;;;;;;;;;;;16.86;38.49;102241.78;5095082;28;1169;-44
2024/01/21 04:45:27;;;;;;;;;;;;;;;17.22;37.55;102250.66;5098246;28;1114;-43
2024/01/21 04:47:53;;;;;;;;;;;;;;;16.21;39.55;102249.31;5107036;28;1100;-41
2024/01/21 04:50:18;;;;;;;;;;;;;;;15.69;40.84;102255.19;5116998;28;1113;-40
2024/01/21 04:52:44;;;;;;;;;;;;;;;15.39;41.24;102253.84;5109238;28;1121;-42
2024/01/21 04:55:09;;;;;;;;;;;;;;;16.18;39.74;102262.75;5103268;28;1162;-39
2024/01/21 04:57:35;;;;;;;;;;;;;;;17.29;37.62;102261.81;5093894;28;2661;-42
2024/01/21 05:00:00;;;;;;;;;;;;;;;16.34;39.08;102267.31;5108900;28;1027;-37
2024/01/21 05:02:26;;;;;;;;;;;;;;;15.72;40.29;102268.31;5095504;28;1384;-44
2024/01/21 05:04:51;;;;;;;;;;;;;;;15.43;40.85;102272.19;5101770;28;1075;-38
2024/01/21 05:07:17;;;;;;;;;;;;;;;15.60;40.96;102275.06;5105924;28;1058;-40
2024/01/21 05:09:43;;;;;;;;;;;;;;;16.99;37.99;102266.81;5096900;28;971;-37
2024/01/21 05:12:08;;;;;;;;;;;;;;;17.10;37.31;102260.97;5109142;28;1015;-39
2024/01/21 05:14:34;;;;;;;;;;;;;;;16.12;39.32;102265.66;5104333;28;1110;-37
2024/01/21 05:16:59;;;;;;;;;;;;;;;15.64;40.27;102273.97;5099050;28;1981;-39
2024/01/21 05:19:25;;;;;;;;;;;;;;;15.38;40.92;102268.03;5107213;28;1286;-39
2024/01/21 05:21:51;;;;;;;;;;;;;;;17.01;37.95;102269.41;5100213;28;1081;-42
2024/01/21 05:24:16;;;;;;;;;;;;;;;15.55;40.56;102267.28;5113981;28;1055;-39
2024/01/21 05:26:43;;;;;;;;;;;;;;;14.89;41.96;102272.72;5097640;28;2607;-39
2024/01/21 05:29:08;;;;;;;;;;;;;;;15.10;42.37;102280.69;5104689;28;1034;-39
2024/01/21 05:31:34;;;;;;;;;;;;;;;15.54;40.85;102274.41;5097724;28;1138;-39
2024/01/21 05:33:59;;;;;;;;;;;;;;;16.42;39.40;102281.09;5115119;28;1129;-41
2024/01/21 05:36:25;;;;;;;;;;;;;;;17.55;37.14;102281.75;5117776;28;1901;-46
2024/01/21 05:38:50;;;;;;;;;;;;;;;15.73;40.46;102281.53;5103931;28;1045;-41
2024/01/21 05:41:16;;;;;;;;;;;;;;;15.13;41.86;102285.00;5106464;28;1049;-44
2024/01/21 05:43:42;;;;;;;;;;;;;;;16.10;39.93;102286.97;5101163;28;1063;-42
2024/01/21 05:46:07;;;;;;;;;;;;;;;15.14;41.96;102292.88;5086411;28;1358;-42
2024/01/21 05:48:33;;;;;;;;;;;;;;;17.16;38.02;102290.84;5094682;28;1031;-40
2024/01/21 05:50:58;;;;;;;;;;;;;;;15.91;40.04;102297.56;5089812;28;1395;-42
2024/01/21 05:53:24;;;;;;;;;;;;;;;15.20;41.42;102301.50;5086430;28;1359;-38
2024/01/21 05:55:49;;;;;;;;;;;;;;;16.56;38.81;102304.34;5085462;28;1977;-41
2024/01/21 05:58:15;;;;;;;;;;;;;;;15.24;41.61;102305.75;5085843;28;1138;-39
2024/01/21 06:00:41;;;;;;;;;;;;;;;15.77;40.88;102304.34;5093615;28;1312;-38
2024/01/21 06:03:06;;;;;;;;;;;;;;;16.27;39.51;102310.09;5097869;28;1073;-38
2024/01/21 06:05:32;;;;;;;;;;;;;;;15.31;41.54;102301.91;5095687;28;1261;-42
2024/01/21 06:07:57;;;;;;;;;;;;;;;17.39;37.56;102313.63;5090726;28;1127;-37
2024/01/21 06:10:23;;;;;;;;;;;;;;;16.08;39.64;102317.19;5087672;28;1090;-40
2024/01/21 06:12:48;;;;;;;;;;;;;;;15.35;41.46;102315.91;5117311;28;1058;-39
2024/01/21 06:15:14;;;;;;;;;;;;;;;16.60;39.10;102321.84;5101277;28;1177;-41
2024/01/21 06:17:39;;;;;;;;;;;;;;;15.40;41.32;102314.78;5092073;28;1905;-42
2024/01/21 06:20:06;;;;;;;;;;;;;;;15.63;41.37;102326.16;5082135;28;1074;-47
2024/01/21 06:22:31;;;;;;;;;;;;;;;16.87;38.10;102329.44;5088063;28;1080;-42
2024/01/21 06:24:57;;;;;;;;;;;;;;;15.52;41.01;102328.44;5094351;28;1367;-40
2024/01/21 06:27:22;;;;;;;;;;;;;;;17.17;37.87;102335.97;5107389;28;2638;-41
2024/01/21 06:29:48;;;;;;;;;;;;;;;16.23;39.26;102332.41;5107607;28;1144;-41
2024/01/21 06:32:13;;;;;;;;;;;;;;;15.39;41.07;102333.41;5116738;28;1014;-39
2024/01/21 06:34:39;;;;;;;;;;;;;;;15.10;41.82;102331.03;5103187;28;1068;-42
2024/01/21 06:37:04;;;;;;;;;;;;;;;15.96;39.99;102329.19;5116309;28;1977;-44
2024/01/21 06:39:30;;;;;;;;;;;;;;;15.29;41.61;102338.22;5102679;28;1101;-42
2024/01/21 06:41:55;;;;;;;;;;;;;;;17.39;37.38;102337.56;5113423;28;936;-41
2024/01/21 06:44:21;;;;;;;;;;;;;;;15.88;39.98;102342.81;5116821;28;997;-43
2024/01/21 06:46:46;;;;;;;;;;;;;;;15.29;41.42;102331.16;5116637;28;990;-38
2024/01/21 06:49:12;;;;;;;;;;;;;;;16.92;38.35;102341.63;5102613;28;1145;-39
2024/01/21 06:51:46;;;;;;;;;;;;;;;15.60;40.46;102326.31;5099173;28;1126;-40
2024/01/21 06:54:13;;;;;;;;;;;;;;;16.99;38.36;102337.72;5098109;28;1042;-42
2024/01/21 06:56:38;;;;;;;;;;;;;;;16.71;38.29;102323.13;5097881;28;2270;-42
2024/01/21 06:59:04;;;;;;;;;;;;;;;15.58;40.90;102325.50;5109176;28;1122;-43
2024/01/21 07:01:29;;;;;;;;;;;;;;;15.21;41.66;102333.25;5115547;28;1075;-40
2024/01/21 07:03:55;;;;;;;;;;;;;;;16.09;39.74;102326.88;5116311;28;1054;-43
2024/01/21 07:06:20;;;;;;;;;;;;;;;16.88;38.41;102327.63;5107822;28;896;-40
2024/01/21 07:08:46;;;;;;;;;;;;;;;18.11;35.97;102331.19;5096235;28;1047;-42
2024/01/21 07:11:11;;;;;;;;;;;;;;;16.40;38.83;102325.44;5096081;28;1148;-39
2024/01/21 07:13:38;;;;;;;;;;;;;;;15.65;40.44;102328.75;5105438;28;1049;-39
2024/01/21 07:16:03;;;;;;;;;;;;;;;16.61;38.52;102341.31;5112538;28;1914;-41
2024/01/21 07:18:29;;;;;;;;;;;;;;;15.63;40.75;102344.75;5105085;28;921;-41
2024/01/21 07:20:54;;;;;;;;;;;;;;;17.74;36.67;102347.31;5115405;28;998;-47
2024/01/21 07:23:20;;;;;;;;;;;;;;;16.45;38.71;102343.84;5116057;28;1010;-42
2024/01/21 07:25:48;;;;;;;;;;;;;;;15.67;40.37;102343.69;5086860;28;2565;-39
2024/01/21 07:28:15;;;;;;;;;;;;;;;16.16;39.98;102346.91;5095840;28;1015;-40
2024/01/21 07:30:41;;;;;;;;;;;;;;;16.08;39.62;102341.94;5099546;28;1037;-40
2024/01/21 07:33:06;;;;;;;;;;;;;;;15.51;40.86;102347.94;5105772;28;1101;-43
2024/01/21 07:35:32;;;;;;;;;;;;;;;17.32;37.14;102345.00;5116679;28;1038;-42
2024/01/21 07:37:57;;;;;;;;;;;;;;;15.87;40.01;102346.38;5101110;28;1981;-39
2024/01/21 07:40:23;;;;;;;;;;;;;;;17.10;37.81;102345.22;5109655;28;1059;-45
2024/01/21 07:42:48;;;;;;;;;;;;;;;16.70;38.35;102348.00;5097321;28;1099;-38
2024/01/21 07:45:14;;;;;;;;;;;;;;;15.70;40.44;102344.50;5100127;28;1156;-43
2024/01/21 07:47:40;;;;;;;;;;;;;;;15.38;41.00;102355.56;5098667;28;1130;-44
2024/01/21 07:50:05;;;;;;;;;;;;;;;17.18;37.36;102353.69;5100512;28;1195;-41
2024/01/21 07:52:31;;;;;;;;;;;;;;;15.63;40.39;102355.34;5119731;28;1041;-40
2024/01/21 07:54:57;;;;;;;;;;;;;;;16.99;37.82;102370.50;5114692;28;1228;-40
2024/01/21 07:57:22;;;;;;;;;;;;;;;16.64;38.08;102365.94;5109216;28;2549;-42
2024/01/21 07:59:48;;;;;;;;;;;;;;;15.73;39.67;102379.69;5112657;28;1050;-39
2024/01/21 08:02:13;;;;;;;;;;;;;;;16.19;39.75;102375.09;5089790;28;1099;-38
2024/01/21 08:04:39;;;;;;;;;;;;;;;15.96;39.77;102369.88;5098620;28;1163;-41
2024/01/21 08:07:04;;;;;;;;;;;;;;;16.60;38.67;102372.31;5101802;28;945;-41
2024/01/21 08:09:30;;;;;;;;;;;;;;;17.72;36.12;102387.31;5115276;28;1097;-44
2024/01/21 08:11:55;;;;;;;;;;;;;;;15.95;39.61;102378.75;5119546;28;1136;-41
2024/01/21 08:14:21;;;;;;;;;;;;;;;15.54;40.64;102376.97;5119161;28;1061;-40
2024/01/21 08:16:46;;;;;;;;;;;;;;;17.11;37.50;102393.00;5119129;28;1914;-39
2024/01/21 08:19:12;;;;;;;;;;;;;;;15.95;39.42;102383.22;5102077;28;936;-40
2024/01/21 08:21:37;;;;;;;;;;;;;;;17.12;37.41;102392.06;5099282;28;1097;-39
2024/01/21 08:24:03;;;;;;;;;;;;;;;17.21;36.74;102379.25;5113480;28;1085;-37
2024/01/21 08:26:29;;;;;;;;;;;;;;;15.91;39.50;102385.97;5104988;28;1799;-40
2024/01/21 08:28:54;;;;;;;;;;;;;;;15.56;40.31;102383.09;5108928;28;1404;-41
2024/01/21 08:31:20;;;;;;;;;;;;;;;15.31;40.70;102378.81;5118988;28;831;-43
2024/01/21 08:33:46;;;;;;;;;;;;;;;16.56;38.07;102373.44;5118484;28;1122;-44
2024/01/21 08:36:11;;;;;;;;;;;;;;;15.74;39.85;102386.75;5111250;28;1902;-41
2024/01/21 08:38:38;;;;;;;;;;;;;;;17.71;36.27;102388.28;5098373;28;1123;-41
2024/01/21 08:41:04;;;;;;;;;;;;;;;16.71;37.63;102390.44;5098595;28;1106;-43
2024/01/21 08:43:29;;;;;;;;;;;;;;;15.83;39.41;102393.41;5114429;28;934;-39
2024/01/21 08:45:55;;;;;;;;;;;;;;;15.71;40.21;102392.19;5098171;28;1113;-41
2024/01/21 08:48:20;;;;;;;;;;;;;;;16.03;39.02;102389.94;5103732;28;1230;-38
2024/01/21 08:50:49;;;;;;;;;;;;;;;16.62;38.17;102385.53;5082315;28;1290;-39
2024/01/21 08:53:15;;;;;;;;;;;;;;;17.98;35.47;102385.09;5083266;28;1083;-41
2024/01/21 08:55:40;;;;;;;;;;;;;;;16.09;38.79;102377.31;5097765;28;2363;-41
2024/01/21 08:58:06;;;;;;;;;;;;;;;15.59;40.11;102382.94;5100552;28;1980;-44
2024/01/21 09:00:31;;;;;;;;;;;;;;;16.50;38.50;102389.63;5104884;28;1193;-40
2024/01/21 09:02:57;;;;;;;;;;;;;;;16.39;38.49;102388.34;5118637;28;1053;-42
2024/01/21 09:05:22;;;;;;;;;;;;;;;15.48;40.20;102377.25;5091054;28;1183;-40
2024/01/21 09:07:48;;;;;;;;;;;;;;;15.88;39.69;102383.47;5087799;28;861;-44
2024/01/21 09:10:14;;;;;;;;;;;;;;;16.88;37.27;102383.47;5112702;28;1031;-44
2024/01/21 09:12:39;;;;;;;;;;;;;;;15.67;39.94;102372.88;5095656;28;1053;-43
2024/01/21 09:15:05;;;;;;;;;;;;;;;16.28;38.86;102364.91;5098219;28;1066;-42
2024/01/21 09:17:30;;;;;;;;;;;;;;;16.87;37.40;102353.34;5099428;28;1910;-41
2024/01/21 09:19:56;;;;;;;;;;;;;;;15.63;40.02;102358.00;5100211;28;984;-41
2024/01/21 09:22:21;;;;;;;;;;;;;;;15.30;40.36;102350.56;5085176;28;1273;-45
2024/01/21 09:24:47;;;;;;;;;;;;;;;16.11;38.63;102346.25;5106409;28;1081;-41
2024/01/21 09:27:13;;;;;;;;;;;;;;;16.25;38.61;102338.50;5080732;28;2387;-42
2024/01/21 09:29:39;;;;;;;;;;;;;;;17.95;35.39;102325.84;5110458;28;1192;-39
2024/01/21 09:32:04;;;;;;;;;;;;;;;16.42;37.97;102323.59;5115517;28;905;-38
2024/01/21 09:34:30;;;;;;;;;;;;;;;16.12;39.09;102324.06;5104634;28;1058;-42
2024/01/21 09:36:56;;;;;;;;;;;;;;;17.05;36.81;102328.59;5102657;28;1966;-40
2024/01/21 09:39:21;;;;;;;;;;;;;;;16.00;39.09;102306.91;5091958;28;999;-39
2024/01/21 09:41:50;;;;;;;;;;;;;;;16.34;38.60;102320.44;5097303;28;1023;-43
2024/01/21 09:44:34;;;;;;;;;;;;;;;16.49;37.87;102311.75;5097093;28;880;-45
2024/01/21 09:46:59;;;;;;;;;;;;;;;15.64;39.91;102314.66;5110973;28;1240;-43
2024/01/21 09:49:25;;;;;;;;;;;;;;;17.44;36.16;102326.69;5106564;28;1034;-42
2024/01/21 09:51:51;;;;;;;;;;;;;;;16.00;38.96;102314.88;5117822;28;1073;-40
2024/01/21 09:54:17;;;;;;;;;;;;;;;15.50;39.78;102325.84;5110274;28;948;-45
2024/01/21 09:56:43;;;;;;;;;;;;;;;16.25;38.84;102330.53;5099146;28;2397;-41
2024/01/21 09:59:09;;;;;;;;;;;;;;;16.12;38.39;102324.06;5086492;28;1104;-43
2024/01/21 10:01:34;;;;;;;;;;;;;;;15.44;40.06;102323.47;5090545;28;1130;-39
2024/01/21 10:04:00;;;;;;;;;;;;;;;17.00;37.41;102332.34;5084476;28;1269;-41
2024/01/21 10:06:25;;;;;;;;;;;;;;;15.97;38.89;102330.91;5107429;28;1046;-40
2024/01/21 10:08:51;;;;;;;;;;;;;;;17.17;36.88;102324.47;5116497;28;1112;-41
2024/01/21 10:11:16;;;;;;;;;;;;;;;17.20;36.51;102319.88;5104187;28;1196;-46
2024/01/21 10:13:42;;;;;;;;;;;;;;;15.89;39.17;102308.25;5089629;28;1442;-40
2024/01/21 10:16:09;;;;;;;;;;;;;;;15.81;39.51;102320.13;5075527;28;1910;-42
2024/01/21 10:18:35;;;;;;;;;;;;;;;16.11;38.43;102309.97;5111107;28;1035;-39
2024/01/21 10:21:05;;;;;;;;;;;;;;;15.93;39.15;102308.09;5117525;28;1133;-40
2024/01/21 10:23:30;;;;;;;;;;;;;;;17.72;35.69;102315.47;5110670;28;1120;-42
2024/01/21 10:25:56;;;;;;;;;;;;;;;16.10;38.78;102318.84;5096224;28;2493;-39
2024/01/21 10:28:22;;;;;;;;;;;;;;;15.78;39.44;102318.47;5110394;28;1162;-44
2024/01/21 10:30:48;;;;;;;;;;;;;;;16.73;37.40;102313.31;5096488;28;983;-40
2024/01/21 10:33:13;;;;;;;;;;;;;;;15.68;39.18;102323.34;5113477;28;1071;-42
2024/01/21 10:35:39;;;;;;;;;;;;;;;15.30;40.07;102324.03;5117135;28;1033;-41
2024/01/21 10:38:12;;;;;;;;;;;;;;;16.38;38.01;102320.22;5115737;28;1975;-39
2024/01/21 10:40:48;;;;;;;;;;;;;;;16.32;38.60;102327.59;5104892;28;1037;-41
2024/01/21 10:43:14;;;;;;;;;;;;;;;18.03;35.13;102318.28;5115548;28;1038;-40
2024/01/21 10:45:41;;;;;;;;;;;;;;;16.57;37.59;102329.97;5116585;28;1073;-42
2024/01/21 10:48:07;;;;;;;;;;;;;;;15.83;39.14;102312.97;5089580;28;1101;-41
2024/01/21 10:50:32;;;;;;;;;;;;;;;17.32;36.62;102318.38;5116576;28;1077;-44
2024/01/21 10:52:58;;;;;;;;;;;;;;;16.06;38.85;102321.72;5098351;28;1117;-43
2024/01/21 10:55:23;;;;;;;;;;;;;;;15.59;39.52;102318.41;5067217;28;1287;-41
2024/01/21 10:57:50;;;;;;;;;;;;;;;16.70;37.75;102329.41;5101792;28;2823;-40
2024/01/21 11:00:16;;;;;;;;;;;;;;;15.86;39.24;102334.94;5101600;28;1172;-43
2024/01/21 11:02:42;;;;;;;;;;;;;;;15.39;40.33;102333.41;5103104;28;1067;-39
2024/01/21 11:05:08;;;;;;;;;;;;;;;16.69;37.53;102343.59;5096924;28;1050;-44
2024/01/21 11:07:33;;;;;;;;;;;;;;;15.59;39.52;102348.47;5111477;28;1118;-38
2024/01/21 11:10:00;;;;;;;;;;;;;;;17.23;36.72;102354.28;5097412;28;1135;-42
2024/01/21 11:12:27;;;;;;;;;;;;;;;16.34;38.24;102363.78;5096701;28;1405;-47
2024/01/21 11:14:52;;;;;;;;;;;;;;;17.06;36.96;102355.13;5097294;28;1291;-42
2024/01/21 11:17:18;;;;;;;;;;;;;;;17.89;35.05;102376.72;5102566;28;1902;-38
2024/01/21 11:19:49;;;;;;;;;;;;;;;16.22;38.34;102359.03;5087686;28;948;-38
2024/01/21 11:22:15;;;;;;;;;;;;;;;15.98;39.29;102357.41;5090440;28;1141;-40
2024/01/21 11:24:41;;;;;;;;;;;;;;;16.61;37.42;102355.47;5082766;28;1039;-38
2024/01/21 11:27:16;;;;;;;;;;;;;;;15.76;39.47;102358.34;5086502;28;1835;-40
2024/01/21 11:29:43;;;;;;;;;;;;;;;17.87;35.30;102367.03;5116046;28;1113;-39
2024/01/21 11:32:11;;;;;;;;;;;;;;;16.27;38.25;102360.56;5104464;28;994;-44
2024/01/21 11:34:40;;;;;;;;;;;;;;;15.60;39.85;102358.13;5106380;28;994;-43
2024/01/21 11:37:06;;;;;;;;;;;;;;;15.95;39.20;102356.69;5111574;28;1967;-39
2024/01/21 11:39:31;;;;;;;;;;;;;;;16.30;38.02;102353.38;5106131;28;1698;-39
2024/01/21 11:41:57;;;;;;;;;;;;;;;15.62;39.71;102360.72;5111256;28;1069;-43
2024/01/21 11:44:26;;;;;;;;;;;;;;;17.40;36.49;102365.88;5093098;28;872;-41
2024/01/21 11:46:55;;;;;;;;;;;;;;;16.00;38.72;102360.00;5108018;28;1097;-39
2024/01/21 11:49:20;;;;;;;;;;;;;;;15.42;39.92;102357.13;5115700;28;1114;-41
2024/01/21 11:51:46;;;;;;;;;;;;;;;16.40;38.22;102352.88;5099003;28;1332;-37
2024/01/21 11:54:12;;;;;;;;;;;;;;;16.05;38.45;102363.31;5115236;28;1033;-38
2024/01/21 11:56:38;;;;;;;;;;;;;;;15.40;40.13;102353.69;5100679;28;2433;-39
2024/01/21 11:59:08;;;;;;;;;;;;;;;16.98;37.19;102362.59;5106966;28;1156;-42
2024/01/21 12:01:34;;;;;;;;;;;;;;;15.74;39.07;102362.00;5077847;28;1551;-39
2024/01/21 12:04:06;;;;;;;;;;;;;;;15.29;39.87;102347.06;5085827;28;1115;-39
2024/01/21 12:06:32;;;;;;;;;;;;;;;15.86;39.48;102357.94;5106413;28;1441;-39
2024/01/21 12:08:58;;;;;;;;;;;;;;;16.32;38.09;102360.34;5098717;28;1095;-38
2024/01/21 12:11:23;;;;;;;;;;;;;;;15.44;39.51;102360.59;5083380;28;1326;-41
2024/01/21 12:13:49;;;;;;;;;;;;;;;15.15;40.38;102355.56;5099498;28;972;-42
2024/01/21 12:16:16;;;;;;;;;;;;;;;16.66;37.42;102355.25;5091125;28;1970;-41
2024/01/21 12:18:42;;;;;;;;;;;;;;;15.36;39.68;102357.41;5099827;28;1006;-41
2024/01/21 12:21:07;;;;;;;;;;;;;;;17.26;36.45;102358.59;5114879;28;1077;-41
2024/01/21 12:23:35;;;;;;;;;;;;;;;16.32;37.92;102354.16;5104954;28;1126;-37
2024/01/21 12:26:00;;;;;;;;;;;;;;;16.90;36.99;102362.97;5108331;28;1820;-39
2024/01/21 12:28:26;;;;;;;;;;;;;;;17.95;34.89;102366.63;5104866;28;1178;-40
2024/01/21 12:30:53;;;;;;;;;;;;;;;16.20;38.41;102364.41;5097500;28;1171;-40
2024/01/21 12:33:18;;;;;;;;;;;;;;;15.65;39.09;102355.28;5096245;28;1171;-39
2024/01/21 12:35:44;;;;;;;;;;;;;;;15.36;40.01;102362.69;5062422;28;1423;-40
2024/01/21 12:38:09;;;;;;;;;;;;;;;16.88;37.44;102362.19;5088847;28;1909;-44
2024/01/21 12:40:35;;;;;;;;;;;;;;;15.88;38.71;102369.34;5098281;28;1324;-45